sensor_id;sensor_type;location;lat;lon;timestamp;P1;durP1;ratioP1;P2;durP2;ratioP2
59607;SDS011;45426;44.726;10.390;2023-05-07T00:01:13;11.63;;;7.18;;
59607;SDS011;45426;44.726;10.390;2023-05-07T00:03:39;11.50;;;7.05;;
59607;SDS011;45426;44.726;10.390;2023-05-07T00:06:04;11.70;;;6.82;;
59607;SDS011;45426;44.726;10.390;2023-05-07T00:08:30;13.30;;;7.28;;
59607;SDS011;45426;44.726;10.390;2023-05-07T00:10:56;10.40;;;6.80;;
59607;SDS011;45426;44.726;10.390;2023-05-07T00:13:21;10.45;;;7.22;;
59607;SDS011;45426;44.726;10.390;2023-05-07T00:15:46;12.55;;;7.25;;
59607;SDS011;45426;44.726;10.390;2023-05-07T00:18:12;13.30;;;7.38;;
59607;SDS011;45426;44.726;10.390;2023-05-07T00:20:37;12.18;;;7.55;;
59607;SDS011;45426;44.726;10.390;2023-05-07T00:23:03;11.82;;;7.75;;
59607;SDS011;45426;44.726;10.390;2023-05-07T00:25:28;13.85;;;8.13;;
59607;SDS011;45426;44.726;10.390;2023-05-07T00:27:54;12.82;;;7.85;;
59607;SDS011;45426;44.726;10.390;2023-05-07T00:30:19;13.95;;;8.07;;
59607;SDS011;45426;44.726;10.390;2023-05-07T00:32:44;13.27;;;7.75;;
59607;SDS011;45426;44.726;10.390;2023-05-07T00:35:10;14.10;;;8.45;;
59607;SDS011;45426;44.726;10.390;2023-05-07T00:37:36;13.25;;;8.18;;
59607;SDS011;45426;44.726;10.390;2023-05-07T00:40:02;13.82;;;8.18;;
59607;SDS011;45426;44.726;10.390;2023-05-07T00:42:29;13.80;;;7.93;;
59607;SDS011;45426;44.726;10.390;2023-05-07T00:44:57;12.63;;;8.63;;
59607;SDS011;45426;44.726;10.390;2023-05-07T00:47:23;14.40;;;8.13;;
59607;SDS011;45426;44.726;10.390;2023-05-07T00:49:50;14.32;;;9.05;;
59607;SDS011;45426;44.726;10.390;2023-05-07T00:52:16;14.15;;;8.65;;
59607;SDS011;45426;44.726;10.390;2023-05-07T00:54:42;15.43;;;8.75;;
59607;SDS011;45426;44.726;10.390;2023-05-07T00:57:09;14.23;;;9.38;;
59607;SDS011;45426;44.726;10.390;2023-05-07T00:59:36;14.23;;;9.48;;
59607;SDS011;45426;44.726;10.390;2023-05-07T01:02:02;14.77;;;9.13;;
59607;SDS011;45426;44.726;10.390;2023-05-07T01:04:27;13.23;;;8.80;;
59607;SDS011;45426;44.726;10.390;2023-05-07T01:06:56;13.75;;;8.52;;
59607;SDS011;45426;44.726;10.390;2023-05-07T01:09:24;13.35;;;8.70;;
59607;SDS011;45426;44.726;10.390;2023-05-07T01:11:50;12.75;;;8.23;;
59607;SDS011;45426;44.726;10.390;2023-05-07T01:14:16;14.00;;;9.02;;
59607;SDS011;45426;44.726;10.390;2023-05-07T01:16:43;15.10;;;9.05;;
59607;SDS011;45426;44.726;10.390;2023-05-07T01:19:09;13.82;;;8.68;;
59607;SDS011;45426;44.726;10.390;2023-05-07T01:21:38;14.02;;;9.00;;
59607;SDS011;45426;44.726;10.390;2023-05-07T01:24:04;14.45;;;8.93;;
59607;SDS011;45426;44.726;10.390;2023-05-07T01:26:30;15.27;;;8.73;;
59607;SDS011;45426;44.726;10.390;2023-05-07T01:28:55;14.20;;;7.80;;
59607;SDS011;45426;44.726;10.390;2023-05-07T01:31:21;14.50;;;8.52;;
59607;SDS011;45426;44.726;10.390;2023-05-07T01:33:48;13.80;;;8.27;;
59607;SDS011;45426;44.726;10.390;2023-05-07T01:36:18;14.82;;;9.05;;
59607;SDS011;45426;44.726;10.390;2023-05-07T01:38:45;15.07;;;9.65;;
59607;SDS011;45426;44.726;10.390;2023-05-07T01:41:11;15.82;;;9.15;;
59607;SDS011;45426;44.726;10.390;2023-05-07T01:43:37;14.38;;;9.02;;
59607;SDS011;45426;44.726;10.390;2023-05-07T01:46:03;15.50;;;8.77;;
59607;SDS011;45426;44.726;10.390;2023-05-07T01:48:28;14.52;;;9.00;;
59607;SDS011;45426;44.726;10.390;2023-05-07T01:50:54;15.48;;;9.27;;
59607;SDS011;45426;44.726;10.390;2023-05-07T01:53:20;15.15;;;9.55;;
59607;SDS011;45426;44.726;10.390;2023-05-07T01:55:45;16.52;;;9.35;;
59607;SDS011;45426;44.726;10.390;2023-05-07T01:58:11;14.38;;;9.48;;
59607;SDS011;45426;44.726;10.390;2023-05-07T02:00:36;15.38;;;9.65;;
59607;SDS011;45426;44.726;10.390;2023-05-07T02:03:02;20.17;;;9.13;;
59607;SDS011;45426;44.726;10.390;2023-05-07T02:05:27;14.73;;;8.77;;
59607;SDS011;45426;44.726;10.390;2023-05-07T02:07:53;17.15;;;9.68;;
59607;SDS011;45426;44.726;10.390;2023-05-07T02:10:18;14.60;;;9.55;;
59607;SDS011;45426;44.726;10.390;2023-05-07T02:12:44;17.75;;;9.45;;
59607;SDS011;45426;44.726;10.390;2023-05-07T02:15:09;15.10;;;9.30;;
59607;SDS011;45426;44.726;10.390;2023-05-07T02:17:39;18.55;;;9.95;;
59607;SDS011;45426;44.726;10.390;2023-05-07T02:20:23;14.90;;;9.73;;
59607;SDS011;45426;44.726;10.390;2023-05-07T02:22:48;17.95;;;9.18;;
59607;SDS011;45426;44.726;10.390;2023-05-07T02:25:14;16.02;;;9.52;;
59607;SDS011;45426;44.726;10.390;2023-05-07T02:27:39;14.35;;;8.77;;
59607;SDS011;45426;44.726;10.390;2023-05-07T02:30:05;14.77;;;8.55;;
59607;SDS011;45426;44.726;10.390;2023-05-07T02:32:30;15.32;;;9.80;;
59607;SDS011;45426;44.726;10.390;2023-05-07T02:34:56;16.40;;;10.23;;
59607;SDS011;45426;44.726;10.390;2023-05-07T02:37:21;15.65;;;9.20;;
59607;SDS011;45426;44.726;10.390;2023-05-07T02:39:47;15.23;;;9.70;;
59607;SDS011;45426;44.726;10.390;2023-05-07T02:42:12;14.77;;;9.60;;
59607;SDS011;45426;44.726;10.390;2023-05-07T02:44:37;17.45;;;10.45;;
59607;SDS011;45426;44.726;10.390;2023-05-07T02:47:03;16.80;;;9.77;;
59607;SDS011;45426;44.726;10.390;2023-05-07T02:49:29;15.75;;;9.63;;
59607;SDS011;45426;44.726;10.390;2023-05-07T02:51:54;18.67;;;9.57;;
59607;SDS011;45426;44.726;10.390;2023-05-07T02:54:20;25.95;;;10.00;;
59607;SDS011;45426;44.726;10.390;2023-05-07T02:56:46;18.55;;;10.10;;
59607;SDS011;45426;44.726;10.390;2023-05-07T02:59:11;15.75;;;10.18;;
59607;SDS011;45426;44.726;10.390;2023-05-07T03:01:36;17.63;;;10.27;;
59607;SDS011;45426;44.726;10.390;2023-05-07T03:04:02;17.27;;;9.77;;
59607;SDS011;45426;44.726;10.390;2023-05-07T03:06:27;18.73;;;10.70;;
59607;SDS011;45426;44.726;10.390;2023-05-07T03:08:53;17.08;;;10.48;;
59607;SDS011;45426;44.726;10.390;2023-05-07T03:11:18;15.73;;;9.63;;
59607;SDS011;45426;44.726;10.390;2023-05-07T03:13:44;17.15;;;10.10;;
59607;SDS011;45426;44.726;10.390;2023-05-07T03:16:09;19.10;;;11.20;;
59607;SDS011;45426;44.726;10.390;2023-05-07T03:18:34;19.92;;;11.27;;
59607;SDS011;45426;44.726;10.390;2023-05-07T03:21:00;18.88;;;11.68;;
59607;SDS011;45426;44.726;10.390;2023-05-07T03:23:25;18.20;;;11.35;;
59607;SDS011;45426;44.726;10.390;2023-05-07T03:25:51;20.17;;;12.00;;
59607;SDS011;45426;44.726;10.390;2023-05-07T03:28:16;20.05;;;11.48;;
59607;SDS011;45426;44.726;10.390;2023-05-07T03:30:41;21.77;;;11.95;;
59607;SDS011;45426;44.726;10.390;2023-05-07T03:33:07;19.00;;;12.23;;
59607;SDS011;45426;44.726;10.390;2023-05-07T03:35:32;18.60;;;11.38;;
59607;SDS011;45426;44.726;10.390;2023-05-07T03:37:58;19.88;;;12.40;;
59607;SDS011;45426;44.726;10.390;2023-05-07T03:40:23;19.92;;;11.30;;
59607;SDS011;45426;44.726;10.390;2023-05-07T03:42:49;19.05;;;11.35;;
59607;SDS011;45426;44.726;10.390;2023-05-07T03:45:14;21.42;;;11.50;;
59607;SDS011;45426;44.726;10.390;2023-05-07T03:47:40;20.25;;;12.13;;
59607;SDS011;45426;44.726;10.390;2023-05-07T03:50:06;24.92;;;13.02;;
59607;SDS011;45426;44.726;10.390;2023-05-07T03:52:31;20.30;;;12.85;;
59607;SDS011;45426;44.726;10.390;2023-05-07T03:54:56;18.35;;;11.63;;
59607;SDS011;45426;44.726;10.390;2023-05-07T03:57:22;20.08;;;11.13;;
59607;SDS011;45426;44.726;10.390;2023-05-07T03:59:47;17.27;;;10.55;;
59607;SDS011;45426;44.726;10.390;2023-05-07T04:02:13;20.00;;;11.57;;
59607;SDS011;45426;44.726;10.390;2023-05-07T04:04:38;18.70;;;10.93;;
59607;SDS011;45426;44.726;10.390;2023-05-07T04:07:04;19.42;;;11.57;;
59607;SDS011;45426;44.726;10.390;2023-05-07T04:09:29;19.13;;;10.80;;
59607;SDS011;45426;44.726;10.390;2023-05-07T04:11:55;19.75;;;10.55;;
59607;SDS011;45426;44.726;10.390;2023-05-07T04:14:20;19.17;;;10.38;;
59607;SDS011;45426;44.726;10.390;2023-05-07T04:16:46;16.75;;;10.32;;
59607;SDS011;45426;44.726;10.390;2023-05-07T04:19:11;18.58;;;11.20;;
59607;SDS011;45426;44.726;10.390;2023-05-07T04:21:37;17.55;;;9.98;;
59607;SDS011;45426;44.726;10.390;2023-05-07T04:24:02;16.55;;;9.75;;
59607;SDS011;45426;44.726;10.390;2023-05-07T04:26:28;17.13;;;10.25;;
59607;SDS011;45426;44.726;10.390;2023-05-07T04:28:54;18.60;;;10.65;;
59607;SDS011;45426;44.726;10.390;2023-05-07T04:31:20;18.30;;;10.32;;
59607;SDS011;45426;44.726;10.390;2023-05-07T04:33:45;17.25;;;10.63;;
59607;SDS011;45426;44.726;10.390;2023-05-07T04:36:10;17.00;;;9.50;;
59607;SDS011;45426;44.726;10.390;2023-05-07T04:38:36;16.50;;;9.13;;
59607;SDS011;45426;44.726;10.390;2023-05-07T04:41:05;19.40;;;9.68;;
59607;SDS011;45426;44.726;10.390;2023-05-07T04:43:31;17.20;;;9.80;;
59607;SDS011;45426;44.726;10.390;2023-05-07T04:45:57;18.25;;;9.93;;
59607;SDS011;45426;44.726;10.390;2023-05-07T04:48:22;17.92;;;9.93;;
59607;SDS011;45426;44.726;10.390;2023-05-07T04:50:48;14.85;;;9.00;;
59607;SDS011;45426;44.726;10.390;2023-05-07T04:53:14;13.45;;;8.65;;
59607;SDS011;45426;44.726;10.390;2023-05-07T04:55:40;15.27;;;8.02;;
59607;SDS011;45426;44.726;10.390;2023-05-07T04:58:05;14.27;;;8.52;;
59607;SDS011;45426;44.726;10.390;2023-05-07T05:00:32;14.63;;;8.38;;
59607;SDS011;45426;44.726;10.390;2023-05-07T05:02:58;12.95;;;7.35;;
59607;SDS011;45426;44.726;10.390;2023-05-07T05:05:23;12.77;;;7.95;;
59607;SDS011;45426;44.726;10.390;2023-05-07T05:07:49;12.57;;;7.38;;
59607;SDS011;45426;44.726;10.390;2023-05-07T05:10:14;15.18;;;7.53;;
59607;SDS011;45426;44.726;10.390;2023-05-07T05:12:41;19.20;;;7.93;;
59607;SDS011;45426;44.726;10.390;2023-05-07T05:15:06;13.50;;;7.90;;
59607;SDS011;45426;44.726;10.390;2023-05-07T05:17:32;12.57;;;7.35;;
59607;SDS011;45426;44.726;10.390;2023-05-07T05:19:59;14.75;;;7.85;;
59607;SDS011;45426;44.726;10.390;2023-05-07T05:22:25;11.73;;;7.50;;
59607;SDS011;45426;44.726;10.390;2023-05-07T05:24:50;12.32;;;7.40;;
59607;SDS011;45426;44.726;10.390;2023-05-07T05:27:16;13.63;;;7.63;;
59607;SDS011;45426;44.726;10.390;2023-05-07T05:29:41;12.68;;;7.45;;
59607;SDS011;45426;44.726;10.390;2023-05-07T05:32:07;11.02;;;7.07;;
59607;SDS011;45426;44.726;10.390;2023-05-07T05:34:32;12.70;;;6.97;;
59607;SDS011;45426;44.726;10.390;2023-05-07T05:36:58;12.02;;;6.85;;
59607;SDS011;45426;44.726;10.390;2023-05-07T05:39:24;11.52;;;7.13;;
59607;SDS011;45426;44.726;10.390;2023-05-07T05:41:50;10.32;;;6.68;;
59607;SDS011;45426;44.726;10.390;2023-05-07T05:44:15;10.95;;;6.43;;
59607;SDS011;45426;44.726;10.390;2023-05-07T05:46:40;12.93;;;6.55;;
59607;SDS011;45426;44.726;10.390;2023-05-07T05:49:06;11.88;;;5.88;;
59607;SDS011;45426;44.726;10.390;2023-05-07T05:51:32;10.82;;;6.30;;
59607;SDS011;45426;44.726;10.390;2023-05-07T05:53:57;9.75;;;6.43;;
59607;SDS011;45426;44.726;10.390;2023-05-07T05:56:22;10.00;;;5.78;;
59607;SDS011;45426;44.726;10.390;2023-05-07T05:58:48;11.52;;;5.95;;
59607;SDS011;45426;44.726;10.390;2023-05-07T06:01:13;9.63;;;5.80;;
59607;SDS011;45426;44.726;10.390;2023-05-07T06:03:39;10.68;;;5.70;;
59607;SDS011;45426;44.726;10.390;2023-05-07T06:06:04;10.55;;;6.28;;
59607;SDS011;45426;44.726;10.390;2023-05-07T06:08:30;14.40;;;5.60;;
59607;SDS011;45426;44.726;10.390;2023-05-07T06:10:56;10.32;;;5.25;;
59607;SDS011;45426;44.726;10.390;2023-05-07T06:13:22;9.68;;;5.43;;
59607;SDS011;45426;44.726;10.390;2023-05-07T06:15:48;8.32;;;5.00;;
59607;SDS011;45426;44.726;10.390;2023-05-07T06:18:14;7.68;;;4.90;;
59607;SDS011;45426;44.726;10.390;2023-05-07T06:20:39;9.85;;;5.28;;
59607;SDS011;45426;44.726;10.390;2023-05-07T06:23:05;10.50;;;5.13;;
59607;SDS011;45426;44.726;10.390;2023-05-07T06:25:30;11.15;;;5.43;;
59607;SDS011;45426;44.726;10.390;2023-05-07T06:27:55;8.55;;;5.20;;
59607;SDS011;45426;44.726;10.390;2023-05-07T06:30:21;9.85;;;5.07;;
59607;SDS011;45426;44.726;10.390;2023-05-07T06:32:46;9.10;;;5.13;;
59607;SDS011;45426;44.726;10.390;2023-05-07T06:35:12;10.50;;;5.03;;
59607;SDS011;45426;44.726;10.390;2023-05-07T06:37:38;8.80;;;5.05;;
59607;SDS011;45426;44.726;10.390;2023-05-07T06:40:05;10.57;;;4.50;;
59607;SDS011;45426;44.726;10.390;2023-05-07T06:42:32;9.07;;;4.60;;
59607;SDS011;45426;44.726;10.390;2023-05-07T06:44:57;10.50;;;5.03;;
59607;SDS011;45426;44.726;10.390;2023-05-07T06:47:22;8.68;;;5.03;;
59607;SDS011;45426;44.726;10.390;2023-05-07T06:49:48;9.15;;;5.00;;
59607;SDS011;45426;44.726;10.390;2023-05-07T06:52:13;10.50;;;4.68;;
59607;SDS011;45426;44.726;10.390;2023-05-07T06:54:39;9.43;;;4.68;;
59607;SDS011;45426;44.726;10.390;2023-05-07T06:57:04;7.45;;;4.38;;
59607;SDS011;45426;44.726;10.390;2023-05-07T06:59:29;9.63;;;4.55;;
59607;SDS011;45426;44.726;10.390;2023-05-07T07:01:55;8.40;;;4.50;;
59607;SDS011;45426;44.726;10.390;2023-05-07T07:04:20;9.32;;;4.50;;
59607;SDS011;45426;44.726;10.390;2023-05-07T07:06:47;8.38;;;4.43;;
59607;SDS011;45426;44.726;10.390;2023-05-07T07:09:13;8.02;;;4.60;;
59607;SDS011;45426;44.726;10.390;2023-05-07T07:11:38;9.30;;;4.68;;
59607;SDS011;45426;44.726;10.390;2023-05-07T07:14:04;10.18;;;5.50;;
59607;SDS011;45426;44.726;10.390;2023-05-07T07:16:30;10.27;;;5.20;;
59607;SDS011;45426;44.726;10.390;2023-05-07T07:18:56;11.65;;;5.65;;
59607;SDS011;45426;44.726;10.390;2023-05-07T07:21:21;9.35;;;6.13;;
59607;SDS011;45426;44.726;10.390;2023-05-07T07:23:46;11.68;;;5.78;;
59607;SDS011;45426;44.726;10.390;2023-05-07T07:26:12;10.20;;;5.93;;
59607;SDS011;45426;44.726;10.390;2023-05-07T07:28:44;10.43;;;6.75;;
59607;SDS011;45426;44.726;10.390;2023-05-07T07:31:10;10.68;;;6.38;;
59607;SDS011;45426;44.726;10.390;2023-05-07T07:33:36;10.65;;;6.93;;
59607;SDS011;45426;44.726;10.390;2023-05-07T07:36:02;11.18;;;6.68;;
59607;SDS011;45426;44.726;10.390;2023-05-07T07:38:27;11.45;;;7.70;;
59607;SDS011;45426;44.726;10.390;2023-05-07T07:40:53;9.95;;;7.45;;
59607;SDS011;45426;44.726;10.390;2023-05-07T07:43:18;10.98;;;7.80;;
59607;SDS011;45426;44.726;10.390;2023-05-07T07:45:44;11.65;;;7.70;;
59607;SDS011;45426;44.726;10.390;2023-05-07T07:48:10;10.45;;;6.93;;
59607;SDS011;45426;44.726;10.390;2023-05-07T07:50:36;12.20;;;7.70;;
59607;SDS011;45426;44.726;10.390;2023-05-07T07:53:01;12.85;;;7.28;;
59607;SDS011;45426;44.726;10.390;2023-05-07T07:55:27;13.63;;;7.20;;
59607;SDS011;45426;44.726;10.390;2023-05-07T07:57:53;11.10;;;6.70;;
59607;SDS011;45426;44.726;10.390;2023-05-07T08:00:18;11.38;;;7.38;;
59607;SDS011;45426;44.726;10.390;2023-05-07T08:02:43;12.00;;;7.50;;
59607;SDS011;45426;44.726;10.390;2023-05-07T08:05:09;10.23;;;7.20;;
59607;SDS011;45426;44.726;10.390;2023-05-07T08:07:34;10.88;;;7.22;;
59607;SDS011;45426;44.726;10.390;2023-05-07T08:10:00;14.00;;;8.13;;
59607;SDS011;45426;44.726;10.390;2023-05-07T08:12:26;10.95;;;7.63;;
59607;SDS011;45426;44.726;10.390;2023-05-07T08:14:51;14.32;;;8.30;;
59607;SDS011;45426;44.726;10.390;2023-05-07T08:17:17;12.55;;;7.90;;
59607;SDS011;45426;44.726;10.390;2023-05-07T08:19:42;14.43;;;8.90;;
59607;SDS011;45426;44.726;10.390;2023-05-07T08:22:08;11.68;;;7.70;;
59607;SDS011;45426;44.726;10.390;2023-05-07T08:24:34;12.85;;;7.63;;
59607;SDS011;45426;44.726;10.390;2023-05-07T08:27:00;11.25;;;6.97;;
59607;SDS011;45426;44.726;10.390;2023-05-07T08:29:26;12.88;;;6.82;;
59607;SDS011;45426;44.726;10.390;2023-05-07T08:31:51;10.23;;;6.75;;
59607;SDS011;45426;44.726;10.390;2023-05-07T08:34:17;11.88;;;7.18;;
59607;SDS011;45426;44.726;10.390;2023-05-07T08:36:43;12.32;;;8.50;;
59607;SDS011;45426;44.726;10.390;2023-05-07T08:39:09;14.25;;;7.85;;
59607;SDS011;45426;44.726;10.390;2023-05-07T08:41:34;13.15;;;7.88;;
59607;SDS011;45426;44.726;10.390;2023-05-07T08:44:00;11.63;;;7.60;;
59607;SDS011;45426;44.726;10.390;2023-05-07T08:46:30;16.52;;;8.52;;
59607;SDS011;45426;44.726;10.390;2023-05-07T08:48:57;14.13;;;8.13;;
59607;SDS011;45426;44.726;10.390;2023-05-07T08:51:22;14.95;;;9.10;;
59607;SDS011;45426;44.726;10.390;2023-05-07T08:53:48;13.07;;;8.70;;
59607;SDS011;45426;44.726;10.390;2023-05-07T08:56:15;11.10;;;7.70;;
59607;SDS011;45426;44.726;10.390;2023-05-07T08:58:44;12.55;;;7.43;;
59607;SDS011;45426;44.726;10.390;2023-05-07T09:01:13;10.60;;;7.28;;
59607;SDS011;45426;44.726;10.390;2023-05-07T09:03:40;14.30;;;8.15;;
59607;SDS011;45426;44.726;10.390;2023-05-07T09:06:06;14.27;;;8.65;;
59607;SDS011;45426;44.726;10.390;2023-05-07T09:08:34;13.43;;;7.60;;
59607;SDS011;45426;44.726;10.390;2023-05-07T09:11:00;31.38;;;9.05;;
59607;SDS011;45426;44.726;10.390;2023-05-07T09:13:27;14.07;;;6.72;;
59607;SDS011;45426;44.726;10.390;2023-05-07T09:15:53;11.35;;;7.10;;
59607;SDS011;45426;44.726;10.390;2023-05-07T09:18:18;12.93;;;7.95;;
59607;SDS011;45426;44.726;10.390;2023-05-07T09:20:43;14.15;;;7.85;;
59607;SDS011;45426;44.726;10.390;2023-05-07T09:23:09;13.48;;;8.15;;
59607;SDS011;45426;44.726;10.390;2023-05-07T09:25:35;12.63;;;8.75;;
59607;SDS011;45426;44.726;10.390;2023-05-07T09:28:01;12.18;;;7.88;;
59607;SDS011;45426;44.726;10.390;2023-05-07T09:30:31;11.38;;;7.03;;
59607;SDS011;45426;44.726;10.390;2023-05-07T09:33:00;13.40;;;6.55;;
59607;SDS011;45426;44.726;10.390;2023-05-07T09:35:27;10.52;;;6.57;;
59607;SDS011;45426;44.726;10.390;2023-05-07T09:37:53;10.98;;;6.63;;
59607;SDS011;45426;44.726;10.390;2023-05-07T09:40:23;10.35;;;7.10;;
59607;SDS011;45426;44.726;10.390;2023-05-07T09:42:50;13.95;;;7.13;;
59607;SDS011;45426;44.726;10.390;2023-05-07T09:45:16;11.88;;;7.40;;
59607;SDS011;45426;44.726;10.390;2023-05-07T09:47:46;12.45;;;7.53;;
59607;SDS011;45426;44.726;10.390;2023-05-07T09:50:15;10.75;;;6.68;;
59607;SDS011;45426;44.726;10.390;2023-05-07T09:52:42;10.23;;;6.43;;
59607;SDS011;45426;44.726;10.390;2023-05-07T09:55:09;11.05;;;6.57;;
59607;SDS011;45426;44.726;10.390;2023-05-07T09:57:37;10.73;;;6.68;;
59607;SDS011;45426;44.726;10.390;2023-05-07T10:00:05;12.13;;;7.93;;
59607;SDS011;45426;44.726;10.390;2023-05-07T10:02:32;14.15;;;7.13;;
59607;SDS011;45426;44.726;10.390;2023-05-07T10:05:00;12.30;;;7.13;;
59607;SDS011;45426;44.726;10.390;2023-05-07T10:07:27;9.75;;;6.80;;
59607;SDS011;45426;44.726;10.390;2023-05-07T10:09:53;11.80;;;6.40;;
59607;SDS011;45426;44.726;10.390;2023-05-07T10:12:19;10.75;;;5.70;;
59607;SDS011;45426;44.726;10.390;2023-05-07T10:14:45;11.88;;;5.88;;
59607;SDS011;45426;44.726;10.390;2023-05-07T10:17:12;8.48;;;5.07;;
59607;SDS011;45426;44.726;10.390;2023-05-07T10:19:39;10.68;;;5.63;;
59607;SDS011;45426;44.726;10.390;2023-05-07T10:22:05;12.75;;;6.00;;
59607;SDS011;45426;44.726;10.390;2023-05-07T10:24:33;10.05;;;5.13;;
59607;SDS011;45426;44.726;10.390;2023-05-07T10:27:00;8.50;;;5.70;;
59607;SDS011;45426;44.726;10.390;2023-05-07T10:34:44;10.65;;;5.68;;
59607;SDS011;45426;44.726;10.390;2023-05-07T10:37:12;9.27;;;4.90;;
59607;SDS011;45426;44.726;10.390;2023-05-07T10:39:38;10.30;;;4.78;;
59607;SDS011;45426;44.726;10.390;2023-05-07T10:42:11;8.07;;;4.40;;
59607;SDS011;45426;44.726;10.390;2023-05-07T10:44:38;9.13;;;5.32;;
59607;SDS011;45426;44.726;10.390;2023-05-07T10:47:07;8.02;;;4.72;;
59607;SDS011;45426;44.726;10.390;2023-05-07T10:50:20;11.35;;;5.13;;
59607;SDS011;45426;44.726;10.390;2023-05-07T10:52:21;9.55;;;4.80;;
59607;SDS011;45426;44.726;10.390;2023-05-07T10:57:38;9.50;;;5.78;;
59607;SDS011;45426;44.726;10.390;2023-05-07T11:00:04;7.07;;;4.32;;
59607;SDS011;45426;44.726;10.390;2023-05-07T11:05:23;9.07;;;5.35;;
59607;SDS011;45426;44.726;10.390;2023-05-07T11:10:21;10.45;;;5.47;;
59607;SDS011;45426;44.726;10.390;2023-05-07T11:12:48;9.15;;;5.30;;
59607;SDS011;45426;44.726;10.390;2023-05-07T11:15:36;11.70;;;5.80;;
59607;SDS011;45426;44.726;10.390;2023-05-07T11:18:06;8.00;;;4.70;;
59607;SDS011;45426;44.726;10.390;2023-05-07T11:26:00;7.03;;;4.60;;
59607;SDS011;45426;44.726;10.390;2023-05-07T11:28:28;8.65;;;5.45;;
59607;SDS011;45426;44.726;10.390;2023-05-07T11:30:55;10.70;;;6.28;;
59607;SDS011;45426;44.726;10.390;2023-05-07T11:33:22;11.73;;;7.20;;
59607;SDS011;45426;44.726;10.390;2023-05-07T11:35:47;13.98;;;7.63;;
59607;SDS011;45426;44.726;10.390;2023-05-07T11:38:13;10.90;;;7.10;;
59607;SDS011;45426;44.726;10.390;2023-05-07T11:40:58;11.32;;;6.95;;
59607;SDS011;45426;44.726;10.390;2023-05-07T11:43:25;12.98;;;7.45;;
59607;SDS011;45426;44.726;10.390;2023-05-07T11:45:51;13.35;;;6.88;;
59607;SDS011;45426;44.726;10.390;2023-05-07T11:48:17;11.13;;;6.68;;
59607;SDS011;45426;44.726;10.390;2023-05-07T11:50:52;11.35;;;6.10;;
59607;SDS011;45426;44.726;10.390;2023-05-07T11:53:19;9.57;;;6.22;;
59607;SDS011;45426;44.726;10.390;2023-05-07T11:55:45;11.75;;;6.60;;
59607;SDS011;45426;44.726;10.390;2023-05-07T11:58:12;10.73;;;6.40;;
59607;SDS011;45426;44.726;10.390;2023-05-07T12:00:48;11.38;;;6.30;;
59607;SDS011;45426;44.726;10.390;2023-05-07T12:03:15;11.60;;;6.53;;
59607;SDS011;45426;44.726;10.390;2023-05-07T12:05:40;14.75;;;6.32;;
59607;SDS011;45426;44.726;10.390;2023-05-07T12:08:07;11.23;;;5.47;;
59607;SDS011;45426;44.726;10.390;2023-05-07T12:10:32;9.18;;;5.22;;
59607;SDS011;45426;44.726;10.390;2023-05-07T12:12:58;9.95;;;5.97;;
59607;SDS011;45426;44.726;10.390;2023-05-07T12:15:23;13.05;;;6.82;;
59607;SDS011;45426;44.726;10.390;2023-05-07T12:17:49;11.20;;;5.05;;
59607;SDS011;45426;44.726;10.390;2023-05-07T12:20:15;7.88;;;5.18;;
59607;SDS011;45426;44.726;10.390;2023-05-07T12:22:41;9.90;;;5.10;;
59607;SDS011;45426;44.726;10.390;2023-05-07T12:25:07;10.45;;;5.13;;
59607;SDS011;45426;44.726;10.390;2023-05-07T12:27:36;8.77;;;5.30;;
59607;SDS011;45426;44.726;10.390;2023-05-07T12:30:02;8.35;;;4.47;;
59607;SDS011;45426;44.726;10.390;2023-05-07T12:32:28;12.75;;;5.30;;
59607;SDS011;45426;44.726;10.390;2023-05-07T12:34:54;12.63;;;5.40;;
59607;SDS011;45426;44.726;10.390;2023-05-07T12:37:23;12.73;;;5.00;;
59607;SDS011;45426;44.726;10.390;2023-05-07T12:40:05;6.85;;;4.32;;
59607;SDS011;45426;44.726;10.390;2023-05-07T12:42:33;9.00;;;4.90;;
59607;SDS011;45426;44.726;10.390;2023-05-07T12:45:07;9.07;;;4.82;;
59607;SDS011;45426;44.726;10.390;2023-05-07T12:47:33;8.98;;;4.80;;
59607;SDS011;45426;44.726;10.390;2023-05-07T12:49:59;8.63;;;4.20;;
59607;SDS011;45426;44.726;10.390;2023-05-07T12:52:24;7.07;;;5.05;;
59607;SDS011;45426;44.726;10.390;2023-05-07T12:54:50;8.15;;;4.57;;
59607;SDS011;45426;44.726;10.390;2023-05-07T12:57:16;9.75;;;4.90;;
59607;SDS011;45426;44.726;10.390;2023-05-07T12:59:45;8.77;;;5.00;;
59607;SDS011;45426;44.726;10.390;2023-05-07T13:02:10;8.63;;;5.50;;
59607;SDS011;45426;44.726;10.390;2023-05-07T13:04:36;8.20;;;5.05;;
59607;SDS011;45426;44.726;10.390;2023-05-07T13:07:01;8.98;;;4.70;;
59607;SDS011;45426;44.726;10.390;2023-05-07T13:09:27;8.55;;;4.65;;
59607;SDS011;45426;44.726;10.390;2023-05-07T13:11:55;12.07;;;4.85;;
59607;SDS011;45426;44.726;10.390;2023-05-07T13:14:21;8.80;;;4.70;;
59607;SDS011;45426;44.726;10.390;2023-05-07T13:16:47;8.75;;;4.43;;
59607;SDS011;45426;44.726;10.390;2023-05-07T13:19:12;8.93;;;4.60;;
59607;SDS011;45426;44.726;10.390;2023-05-07T13:21:38;7.07;;;4.97;;
59607;SDS011;45426;44.726;10.390;2023-05-07T13:24:03;9.27;;;4.70;;
59607;SDS011;45426;44.726;10.390;2023-05-07T13:26:29;10.48;;;4.75;;
59607;SDS011;45426;44.726;10.390;2023-05-07T13:28:56;8.80;;;4.63;;
59607;SDS011;45426;44.726;10.390;2023-05-07T13:31:21;7.28;;;4.32;;
59607;SDS011;45426;44.726;10.390;2023-05-07T13:33:47;7.65;;;4.72;;
59607;SDS011;45426;44.726;10.390;2023-05-07T13:36:12;8.73;;;4.90;;
59607;SDS011;45426;44.726;10.390;2023-05-07T13:38:41;8.70;;;5.20;;
59607;SDS011;45426;44.726;10.390;2023-05-07T13:41:06;8.82;;;4.78;;
59607;SDS011;45426;44.726;10.390;2023-05-07T13:43:32;7.40;;;5.13;;
59607;SDS011;45426;44.726;10.390;2023-05-07T13:45:58;8.95;;;4.80;;
59607;SDS011;45426;44.726;10.390;2023-05-07T13:48:24;9.75;;;5.60;;
59607;SDS011;45426;44.726;10.390;2023-05-07T13:50:50;9.98;;;5.15;;
59607;SDS011;45426;44.726;10.390;2023-05-07T13:53:16;8.90;;;5.72;;
59607;SDS011;45426;44.726;10.390;2023-05-07T13:55:43;10.02;;;5.55;;
59607;SDS011;45426;44.726;10.390;2023-05-07T13:58:09;8.05;;;5.18;;
59607;SDS011;45426;44.726;10.390;2023-05-07T14:00:34;8.18;;;4.47;;
59607;SDS011;45426;44.726;10.390;2023-05-07T14:03:00;9.80;;;5.72;;
59607;SDS011;45426;44.726;10.390;2023-05-07T14:05:25;8.07;;;5.20;;
59607;SDS011;45426;44.726;10.390;2023-05-07T14:07:53;10.50;;;5.55;;
59607;SDS011;45426;44.726;10.390;2023-05-07T14:10:20;9.93;;;5.88;;
59607;SDS011;45426;44.726;10.390;2023-05-07T14:12:46;10.20;;;5.80;;
59607;SDS011;45426;44.726;10.390;2023-05-07T14:15:12;11.25;;;6.05;;
59607;SDS011;45426;44.726;10.390;2023-05-07T14:17:37;11.27;;;6.03;;
59607;SDS011;45426;44.726;10.390;2023-05-07T14:20:03;8.60;;;5.30;;
59607;SDS011;45426;44.726;10.390;2023-05-07T14:22:29;8.27;;;5.03;;
59607;SDS011;45426;44.726;10.390;2023-05-07T14:24:54;9.18;;;4.88;;
59607;SDS011;45426;44.726;10.390;2023-05-07T14:27:20;8.80;;;5.15;;
59607;SDS011;45426;44.726;10.390;2023-05-07T14:29:45;9.38;;;5.32;;
59607;SDS011;45426;44.726;10.390;2023-05-07T14:32:15;10.13;;;5.15;;
59607;SDS011;45426;44.726;10.390;2023-05-07T14:34:41;7.30;;;4.70;;
59607;SDS011;45426;44.726;10.390;2023-05-07T14:37:07;8.65;;;4.63;;